Aviation Digital Data Service (ADDS)

Output produced by METARs form (1541 UTC 20 May 2018)
found at http://aviationweather.gov/adds/metars/
 
KMPV 201422Z 2014/2112 VRB04KT 6SM -SHRA BR BKN025 
     TEMPO 2014/2016 2SM -RA BR BKN012 
     FM201600 33009KT P6SM BKN025 
     FM201900 33012G20KT P6SM SCT045 
     FM210100 31006KT P6SM FEW200